createdAt,value
2017-12-29T00:00:35.302Z,-2.17
2017-12-29T00:01:35.086Z,-2.09
2017-12-29T00:02:34.999Z,-2
2017-12-29T00:03:34.995Z,-2.09
2017-12-29T00:04:35.240Z,-2.06
2017-12-29T00:05:34.961Z,-2.05
2017-12-29T00:06:34.922Z,-2.09
2017-12-29T00:07:35.178Z,-2.07
2017-12-29T00:08:34.905Z,-1.99
2017-12-29T00:09:34.862Z,-2.02
2017-12-29T00:10:34.829Z,-2.02
2017-12-29T00:11:34.812Z,-1.97
2017-12-29T00:12:34.811Z,-1.99
2017-12-29T00:13:34.781Z,-2.1
2017-12-29T00:14:34.740Z,-1.94
2017-12-29T00:15:34.751Z,-2.09
2017-12-29T00:16:35.269Z,-2.07
2017-12-29T00:17:34.692Z,-2.09
2017-12-29T00:18:34.954Z,-2.12
2017-12-29T00:19:34.677Z,-2.06
2017-12-29T00:20:34.637Z,-2.1
2017-12-29T00:21:34.614Z,-2.02
2017-12-29T00:22:34.885Z,-2.1
2017-12-29T00:23:34.561Z,-2.15
2017-12-29T00:24:34.878Z,-2.15
2017-12-29T00:25:34.544Z,-2.27
2017-12-29T00:26:34.525Z,-2.24
2017-12-29T00:27:34.490Z,-2.3
2017-12-29T00:28:35.014Z,-2.2
2017-12-29T00:29:34.719Z,-2.21
2017-12-29T00:30:34.728Z,-2.34
2017-12-29T00:31:34.691Z,-2.32
2017-12-29T00:32:34.403Z,-2.25
2017-12-29T00:33:34.379Z,-2.28
2017-12-29T00:34:34.564Z,-2.27
2017-12-29T00:35:34.365Z,-2.24
2017-12-29T00:36:34.580Z,-2.2
2017-12-29T00:37:34.284Z,-2.27
2017-12-29T00:38:34.266Z,-2.23
2017-12-29T00:39:34.553Z,-2.24
2017-12-29T00:40:34.212Z,-2.25
2017-12-29T00:41:34.224Z,-2.23
2017-12-29T00:42:34.199Z,-2.25
2017-12-29T00:43:34.181Z,-2.27
2017-12-29T00:44:34.421Z,-2.28
2017-12-29T00:45:34.707Z,-2.25
2017-12-29T00:46:34.139Z,-2.25
2017-12-29T00:47:34.345Z,-2.21
2017-12-29T00:48:34.324Z,-2.24
2017-12-29T00:49:34.060Z,-2.25
2017-12-29T00:50:34.034Z,-2.21
2017-12-29T00:51:34.010Z,-2.15
2017-12-29T00:52:33.990Z,-2.21
2017-12-29T00:53:33.973Z,-2.27
2017-12-29T00:54:33.969Z,-2.21
2017-12-29T00:55:33.948Z,-2.21
2017-12-29T00:56:34.175Z,-2.2
2017-12-29T00:57:33.881Z,-2.23
2017-12-29T00:58:33.858Z,-2.34
2017-12-29T00:59:34.112Z,-2.4
2017-12-29T01:00:34.094Z,-2.34
2017-12-29T01:01:34.076Z,-2.49
2017-12-29T01:02:34.063Z,-2.55
2017-12-29T01:03:34.046Z,-2.46
2017-12-29T01:04:34.014Z,-2.46
2017-12-29T01:05:34.283Z,-2.46
2017-12-29T01:06:33.705Z,-2.47
2017-12-29T01:07:33.684Z,-2.49
2017-12-29T01:08:33.939Z,-2.54
2017-12-29T01:09:33.914Z,-2.53
2017-12-29T01:10:33.898Z,-2.47
2017-12-29T01:11:34.150Z,-2.5
2017-12-29T01:12:33.582Z,-2.47
2017-12-29T01:13:33.564Z,-2.54
2017-12-29T01:14:33.543Z,-2.64
2017-12-29T01:15:33.520Z,-2.58
2017-12-29T01:16:33.777Z,-2.58
2017-12-29T01:17:33.755Z,-2.7
2017-12-29T01:18:33.734Z,-2.73
2017-12-29T01:19:33.717Z,-2.72
2017-12-29T01:20:33.426Z,-2.64
2017-12-29T01:21:33.402Z,-2.76
2017-12-29T01:22:33.939Z,-2.76
2017-12-29T01:23:33.635Z,-2.58
2017-12-29T01:24:33.636Z,-2.6
2017-12-29T01:25:33.325Z,-2.62
2017-12-29T01:26:33.309Z,-2.5
2017-12-29T01:27:33.281Z,-2.5
2017-12-29T01:28:33.296Z,-2.5
2017-12-29T01:29:33.519Z,-2.36
2017-12-29T01:30:33.513Z,-2.39
2017-12-29T01:31:33.752Z,-2.4
2017-12-29T01:32:33.455Z,-2.37
2017-12-29T01:33:33.166Z,-2.36
2017-12-29T01:34:33.147Z,-2.34
2017-12-29T01:35:33.129Z,-2.4
2017-12-29T01:36:33.373Z,-2.4
2017-12-29T01:37:33.084Z,-2.53
2017-12-29T01:38:33.069Z,-2.46
2017-12-29T01:39:33.318Z,-2.47
2017-12-29T01:40:33.577Z,-2.6
2017-12-29T01:41:33.011Z,-2.6
2017-12-29T01:42:33.530Z,-2.55
2017-12-29T01:43:33.236Z,-2.64
2017-12-29T01:44:32.958Z,-2.64
2017-12-29T01:45:32.927Z,-2.44
2017-12-29T01:46:32.906Z,-2.5
2017-12-29T01:47:32.918Z,-2.44
2017-12-29T01:48:33.146Z,-2.53
2017-12-29T01:49:33.127Z,-2.55
2017-12-29T01:50:33.104Z,-2.42
2017-12-29T01:51:32.824Z,-2.43
2017-12-29T01:52:33.334Z,-2.4
2017-12-29T01:53:33.041Z,-2.43
2017-12-29T01:54:32.746Z,-2.37
2017-12-29T01:55:32.746Z,-2.42
2017-12-29T01:56:32.706Z,-2.36
2017-12-29T01:57:32.963Z,-2.39
2017-12-29T01:58:33.217Z,-2.49
2017-12-29T01:59:33.192Z,-2.53
2017-12-29T02:00:32.628Z,-2.54
2017-12-29T02:01:33.198Z,-2.57
2017-12-29T02:02:33.216Z,-2.57
2017-12-29T02:03:32.804Z,-2.67
2017-12-29T02:04:33.125Z,-2.64
2017-12-29T02:05:32.712Z,-2.6
2017-12-29T02:06:32.517Z,-2.68
2017-12-29T02:07:32.483Z,-2.62
2017-12-29T02:08:33.024Z,-2.55
2017-12-29T02:09:32.490Z,-2.47
2017-12-29T02:10:32.464Z,-2.5
2017-12-29T02:11:32.679Z,-2.42
2017-12-29T02:12:32.389Z,-2.28
2017-12-29T02:13:32.374Z,-2.42
2017-12-29T02:14:32.360Z,-2.27
2017-12-29T02:15:32.332Z,-2.25
2017-12-29T02:16:32.627Z,-2.24
2017-12-29T02:17:32.310Z,-2.2
2017-12-29T02:18:32.815Z,-2.21
2017-12-29T02:19:32.805Z,-2.2
2017-12-29T02:20:32.228Z,-2.24
2017-12-29T02:21:32.229Z,-2.05
2017-12-29T02:22:32.192Z,-2.12
2017-12-29T02:23:32.173Z,-2.21
2017-12-29T02:24:32.173Z,-2.12
2017-12-29T02:25:32.130Z,-2.09
2017-12-29T02:26:32.379Z,-2.03
2017-12-29T02:27:32.359Z,-2.07
2017-12-29T02:28:32.274Z,-2.12
2017-12-29T02:29:32.554Z,-2.03
2017-12-29T02:30:32.398Z,-2.09
2017-12-29T02:31:32.526Z,-2.02
2017-12-29T02:32:32.259Z,-2.03
2017-12-29T02:33:32.195Z,-1.94
2017-12-29T02:34:32.187Z,-1.99
2017-12-29T02:35:32.419Z,-1.99
2017-12-29T02:36:32.158Z,-1.97
2017-12-29T02:37:32.119Z,-1.97
2017-12-29T02:38:32.043Z,-1.97
2017-12-29T02:39:32.098Z,-2.02
2017-12-29T02:40:32.372Z,-2
2017-12-29T02:41:32.439Z,-1.97
2017-12-29T02:42:32.385Z,-1.99
2017-12-29T02:43:32.074Z,-1.96
2017-12-29T02:44:32.270Z,-1.92
2017-12-29T02:45:32.579Z,-1.99
2017-12-29T02:46:32.192Z,-1.99
2017-12-29T02:47:32.240Z,-1.94
2017-12-29T02:48:31.964Z,-1.96
2017-12-29T02:49:32.204Z,-1.92
2017-12-29T02:50:31.654Z,-2
2017-12-29T02:51:31.628Z,-1.92
2017-12-29T02:52:31.598Z,-1.81
2017-12-29T02:53:31.577Z,-1.88
2017-12-29T02:54:32.104Z,-1.82
2017-12-29T02:55:31.813Z,-1.78
2017-12-29T02:56:31.520Z,-1.84
2017-12-29T02:57:31.790Z,-1.84
2017-12-29T02:58:31.761Z,-1.74
2017-12-29T02:59:31.460Z,-1.82
2017-12-29T03:00:31.442Z,-1.85
2017-12-29T03:01:31.423Z,-1.82
2017-12-29T03:02:31.673Z,-1.85
2017-12-29T03:03:31.380Z,-1.79
2017-12-29T03:04:31.631Z,-1.85
2017-12-29T03:05:31.612Z,-1.86
2017-12-29T03:06:31.337Z,-1.84
2017-12-29T03:07:31.575Z,-1.84
2017-12-29T03:08:31.557Z,-1.86
2017-12-29T03:09:31.266Z,-1.82
2017-12-29T03:10:31.516Z,-1.79
2017-12-29T03:11:31.228Z,-1.79
2017-12-29T03:12:31.761Z,-1.84
2017-12-29T03:13:31.190Z,-1.86
2017-12-29T03:14:31.177Z,-1.79
2017-12-29T03:15:31.427Z,-1.73
2017-12-29T03:16:31.134Z,-1.7
2017-12-29T03:17:31.105Z,-1.84
2017-12-29T03:18:31.099Z,-1.66
2017-12-29T03:19:31.351Z,-1.73
2017-12-29T03:20:31.590Z,-1.71
2017-12-29T03:21:31.033Z,-1.73
2017-12-29T03:22:31.032Z,-1.71
2017-12-29T03:23:31.313Z,-1.66
2017-12-29T03:24:31.273Z,-1.66
2017-12-29T03:25:30.950Z,-1.67
2017-12-29T03:26:30.952Z,-1.61
2017-12-29T03:27:31.178Z,-1.73
2017-12-29T03:28:31.163Z,-1.58
2017-12-29T03:29:30.874Z,-1.56
2017-12-29T03:30:30.874Z,-1.63
2017-12-29T03:31:30.835Z,-1.55
2017-12-29T03:32:31.116Z,-1.64
2017-12-29T03:33:30.799Z,-1.56
2017-12-29T03:34:30.772Z,-1.61
2017-12-29T03:35:30.753Z,-1.55
2017-12-29T03:36:31.009Z,-1.52
2017-12-29T03:37:31.011Z,-1.53
2017-12-29T03:38:30.701Z,-1.63
2017-12-29T03:39:30.676Z,-1.52
2017-12-29T03:40:30.930Z,-1.56
2017-12-29T03:41:30.642Z,-1.53
2017-12-29T03:42:30.894Z,-1.46
2017-12-29T03:43:30.899Z,-1.42
2017-12-29T03:44:30.582Z,-1.53
2017-12-29T03:45:30.852Z,-1.49
2017-12-29T03:46:30.833Z,-1.55
2017-12-29T03:47:30.522Z,-1.56
2017-12-29T03:48:30.506Z,-1.49
2017-12-29T03:49:30.774Z,-1.48
2017-12-29T03:50:31.006Z,-1.46
2017-12-29T03:51:30.444Z,-1.49
2017-12-29T03:52:30.746Z,-1.53
2017-12-29T03:53:30.676Z,-1.52
2017-12-29T03:54:30.395Z,-1.49
2017-12-29T03:55:30.368Z,-1.43
2017-12-29T03:56:30.620Z,-1.52
2017-12-29T03:57:30.324Z,-1.45
2017-12-29T03:58:30.581Z,-1.45
2017-12-29T03:59:30.289Z,-1.53
2017-12-29T04:00:30.543Z,-1.46
2017-12-29T04:01:30.247Z,-1.48
2017-12-29T04:02:30.504Z,-1.45
2017-12-29T04:03:30.485Z,-1.5
2017-12-29T04:04:30.195Z,-1.43
2017-12-29T04:05:30.438Z,-1.52
2017-12-29T04:06:30.426Z,-1.49
2017-12-29T04:07:30.421Z,-1.46
2017-12-29T04:08:30.138Z,-1.53
2017-12-29T04:09:30.657Z,-1.49
2017-12-29T04:10:30.093Z,-1.49
2017-12-29T04:11:30.605Z,-1.5
2017-12-29T04:12:30.038Z,-1.43
2017-12-29T04:13:30.021Z,-1.48
2017-12-29T04:14:30.286Z,-1.5
2017-12-29T04:15:29.982Z,-1.55
2017-12-29T04:16:30.233Z,-1.52
2017-12-29T04:17:30.227Z,-1.35
2017-12-29T04:18:30.190Z,-1.46
2017-12-29T04:19:30.170Z,-1.53
2017-12-29T04:20:30.429Z,-1.53
2017-12-29T04:21:29.865Z,-1.49
2017-12-29T04:22:29.845Z,-1.46
2017-12-29T04:23:29.823Z,-1.43
2017-12-29T04:24:29.808Z,-1.5
2017-12-29T04:25:30.057Z,-1.45
2017-12-29T04:26:30.040Z,-1.53
2017-12-29T04:27:30.022Z,-1.38
2017-12-29T04:28:29.755Z,-1.46
2017-12-29T04:29:30.263Z,-1.42
2017-12-29T04:30:29.971Z,-1.35
2017-12-29T04:31:30.212Z,-1.34
2017-12-29T04:32:29.680Z,-1.32
2017-12-29T04:33:30.845Z,-1.42
2017-12-29T04:34:29.897Z,-1.42
2017-12-29T04:35:29.967Z,-1.35
2017-12-29T04:36:29.782Z,-1.34
2017-12-29T04:37:29.556Z,-1.35
2017-12-29T04:38:29.545Z,-1.35
2017-12-29T04:39:29.789Z,-1.35
2017-12-29T04:40:29.763Z,-1.4
2017-12-29T04:41:29.759Z,-1.37
2017-12-29T04:42:29.459Z,-1.4
2017-12-29T04:43:29.984Z,-1.4
2017-12-29T04:44:29.423Z,-1.37
2017-12-29T04:45:29.672Z,-1.31
2017-12-29T04:46:29.380Z,-1.4
2017-12-29T04:47:29.634Z,-1.37
2017-12-29T04:48:29.903Z,-1.42
2017-12-29T04:49:29.593Z,-1.38
2017-12-29T04:50:29.306Z,-1.4
2017-12-29T04:51:29.290Z,-1.31
2017-12-29T04:52:29.539Z,-1.38
2017-12-29T04:53:29.245Z,-1.43
2017-12-29T04:54:29.505Z,-1.45
2017-12-29T04:55:29.480Z,-1.42
2017-12-29T04:56:29.191Z,-1.35
2017-12-29T04:57:29.168Z,-1.35
2017-12-29T04:58:29.419Z,-1.38
2017-12-29T04:59:29.125Z,-1.32
2017-12-29T05:00:29.388Z,-1.38
2017-12-29T05:01:29.102Z,-1.32
2017-12-29T05:02:29.072Z,-1.38
2017-12-29T05:03:29.345Z,-1.31
2017-12-29T05:04:29.307Z,-1.34
2017-12-29T05:05:29.017Z,-1.28
2017-12-29T05:06:29.271Z,-1.32
2017-12-29T05:07:29.245Z,-1.3
2017-12-29T05:08:29.229Z,-1.3
2017-12-29T05:09:28.952Z,-1.22
2017-12-29T05:10:28.927Z,-1.22
2017-12-29T05:11:29.190Z,-1.22
2017-12-29T05:12:28.881Z,-1.19
2017-12-29T05:13:29.143Z,-1.19
2017-12-29T05:14:29.110Z,-1.25
2017-12-29T05:15:29.112Z,-1.22
2017-12-29T05:16:28.812Z,-1.21
2017-12-29T05:17:28.790Z,-1.16
2017-12-29T05:18:28.761Z,-1.21
2017-12-29T05:19:29.301Z,-1.21
2017-12-29T05:20:28.995Z,-1.22
2017-12-29T05:21:28.972Z,-1.21
2017-12-29T05:22:28.685Z,-1.21
2017-12-29T05:23:28.949Z,-1.14
2017-12-29T05:24:28.659Z,-1.17
2017-12-29T05:25:28.647Z,-1.19
2017-12-29T05:26:28.610Z,-1.27
2017-12-29T05:27:28.611Z,-1.22
2017-12-29T05:28:29.136Z,-1.24
2017-12-29T05:29:28.551Z,-1.27
2017-12-29T05:30:28.804Z,-1.27
2017-12-29T05:31:28.513Z,-1.25
2017-12-29T05:32:28.495Z,-1.22
2017-12-29T05:33:28.476Z,-1.25
2017-12-29T05:34:28.471Z,-1.22
2017-12-29T05:35:28.718Z,-1.28
2017-12-29T05:36:28.688Z,-1.28
2017-12-29T05:37:28.667Z,-1.32
2017-12-29T05:38:28.381Z,-1.28
2017-12-29T05:39:28.642Z,-1.25
2017-12-29T05:40:28.343Z,-1.28
2017-12-29T05:41:28.319Z,-1.25
2017-12-29T05:42:28.301Z,-1.28
2017-12-29T05:43:28.281Z,-1.32
2017-12-29T05:44:28.261Z,-1.27
2017-12-29T05:45:28.250Z,-1.28
2017-12-29T05:46:28.502Z,-1.32
2017-12-29T05:47:28.203Z,-1.25
2017-12-29T05:48:28.458Z,-1.25
2017-12-29T05:49:28.727Z,-1.3
2017-12-29T05:50:28.696Z,-1.24
2017-12-29T05:51:28.131Z,-1.19
2017-12-29T05:52:28.391Z,-1.24
2017-12-29T05:53:28.089Z,-1.22
2017-12-29T05:54:28.070Z,-1.32
2017-12-29T05:55:28.337Z,-1.27
2017-12-29T05:56:28.305Z,-1.22
2017-12-29T05:57:28.281Z,-1.27
2017-12-29T05:58:27.991Z,-1.27
2017-12-29T05:59:28.246Z,-1.3
2017-12-29T06:00:28.227Z,-1.25
2017-12-29T06:01:27.934Z,-1.32
2017-12-29T06:02:28.200Z,-1.31
2017-12-29T06:03:27.910Z,-1.25
2017-12-29T06:04:28.151Z,-1.28
2017-12-29T06:05:27.861Z,-1.28
2017-12-29T06:06:28.390Z,-1.28
2017-12-29T06:07:28.095Z,-1.25
2017-12-29T06:08:28.071Z,-1.34
2017-12-29T06:09:27.799Z,-1.28
2017-12-29T06:10:27.764Z,-1.28
2017-12-29T06:11:27.751Z,-1.22
2017-12-29T06:12:27.989Z,-1.22
2017-12-29T06:13:27.703Z,-1.28
2017-12-29T06:14:27.684Z,-1.28
2017-12-29T06:15:27.672Z,-1.27
2017-12-29T06:16:27.916Z,-1.3
2017-12-29T06:17:27.901Z,-1.25
2017-12-29T06:18:27.650Z,-1.25
2017-12-29T06:19:28.137Z,-1.32
2017-12-29T06:20:28.170Z,-1.37
2017-12-29T06:21:27.559Z,-1.27
2017-12-29T06:22:27.808Z,-1.3
2017-12-29T06:23:27.784Z,-1.42
2017-12-29T06:24:27.491Z,-1.34
2017-12-29T06:25:28.030Z,-1.45
2017-12-29T06:26:27.466Z,-1.38
2017-12-29T06:27:27.804Z,-1.35
2017-12-29T06:28:27.432Z,-1.35
2017-12-29T06:29:27.698Z,-1.32
2017-12-29T06:30:27.648Z,-1.35
2017-12-29T06:31:27.627Z,-1.35
2017-12-29T06:32:27.629Z,-1.3
2017-12-29T06:33:27.415Z,-1.38
2017-12-29T06:34:27.585Z,-1.37
2017-12-29T06:35:27.282Z,-1.27
2017-12-29T06:36:27.534Z,-1.32
2017-12-29T06:37:27.276Z,-1.31
2017-12-29T06:38:27.504Z,-1.3
2017-12-29T06:39:27.744Z,-1.38
2017-12-29T06:40:27.213Z,-1.31
2017-12-29T06:41:27.712Z,-1.34
2017-12-29T06:42:27.145Z,-1.4
2017-12-29T06:43:27.400Z,-1.34
2017-12-29T06:44:27.667Z,-1.31
2017-12-29T06:45:27.093Z,-1.35
2017-12-29T06:46:27.073Z,-1.37
2017-12-29T06:47:27.326Z,-1.38
2017-12-29T06:48:27.039Z,-1.3
2017-12-29T06:49:27.297Z,-1.32
2017-12-29T06:50:27.277Z,-1.38
2017-12-29T06:51:26.975Z,-1.4
2017-12-29T06:52:27.228Z,-1.37
2017-12-29T06:53:27.210Z,-1.34
2017-12-29T06:54:26.916Z,-1.4
2017-12-29T06:55:26.897Z,-1.34
2017-12-29T06:56:27.169Z,-1.32
2017-12-29T06:57:27.132Z,-1.32
2017-12-29T06:58:26.842Z,-1.35
2017-12-29T06:59:27.449Z,-1.35
2017-12-29T07:00:27.067Z,-1.31
2017-12-29T07:01:27.370Z,-1.4
2017-12-29T07:02:26.764Z,-1.25
2017-12-29T07:03:27.289Z,-1.22
2017-12-29T07:04:26.723Z,-1.22
2017-12-29T07:05:26.988Z,-1.22
2017-12-29T07:06:26.957Z,-1.22
2017-12-29T07:07:26.940Z,-1.21
2017-12-29T07:08:27.191Z,-1.21
2017-12-29T07:09:26.632Z,-1.13
2017-12-29T07:10:26.608Z,-1.27
2017-12-29T07:11:26.590Z,-1.22
2017-12-29T07:12:26.840Z,-1.19
2017-12-29T07:13:26.550Z,-1.11
2017-12-29T07:14:27.069Z,-1.09
2017-12-29T07:15:26.528Z,-1.11
2017-12-29T07:16:26.512Z,-1.19
2017-12-29T07:17:27.019Z,-1.1
2017-12-29T07:18:26.454Z,-1.16
2017-12-29T07:19:26.456Z,-1.1
2017-12-29T07:20:26.892Z,-0.99
2017-12-29T07:21:26.419Z,-1.07
2017-12-29T07:22:26.648Z,-1.04
2017-12-29T07:23:26.380Z,-1.04
2017-12-29T07:24:26.613Z,-0.96
2017-12-29T07:25:26.593Z,-0.99
2017-12-29T07:26:26.301Z,-0.98
2017-12-29T07:27:26.286Z,-0.98
2017-12-29T07:28:26.535Z,-0.95
2017-12-29T07:29:26.518Z,-0.91
2017-12-29T07:30:26.231Z,-1.03
2017-12-29T07:31:26.501Z,-0.98
2017-12-29T07:32:26.461Z,-0.99
2017-12-29T07:33:26.439Z,-0.99
2017-12-29T07:34:26.420Z,-0.96
2017-12-29T07:35:26.128Z,-0.93
2017-12-29T07:36:26.112Z,-0.95
2017-12-29T07:37:26.364Z,-0.98
2017-12-29T07:38:26.071Z,-0.98
2017-12-29T07:39:26.056Z,-0.82
2017-12-29T07:40:26.042Z,-0.87
2017-12-29T07:41:26.287Z,-0.87
2017-12-29T07:42:25.992Z,-0.95
2017-12-29T07:43:25.990Z,-0.8
2017-12-29T07:44:25.958Z,-0.84
2017-12-29T07:45:26.494Z,-0.89
2017-12-29T07:46:25.918Z,-0.84
2017-12-29T07:47:26.172Z,-0.89
2017-12-29T07:48:26.155Z,-0.87
2017-12-29T07:49:26.143Z,-0.95
2017-12-29T07:50:25.839Z,-0.92
2017-12-29T07:51:26.094Z,-1.03
2017-12-29T07:52:26.077Z,-1.14
2017-12-29T07:53:25.786Z,-1.09
2017-12-29T07:54:25.768Z,-1.13
2017-12-29T07:55:26.024Z,-1.1
2017-12-29T07:56:25.996Z,-1.21
2017-12-29T07:57:25.984Z,-1.19
2017-12-29T07:58:25.975Z,-1.21
2017-12-29T07:59:25.941Z,-1.14
2017-12-29T08:00:26.056Z,-1.07
2017-12-29T08:01:25.654Z,-1.16
2017-12-29T08:02:25.897Z,-1.04
2017-12-29T08:03:25.596Z,-0.99
2017-12-29T08:04:25.581Z,-0.96
2017-12-29T08:05:25.554Z,-1.01
2017-12-29T08:06:26.085Z,-0.91
2017-12-29T08:07:25.793Z,-0.82
2017-12-29T08:08:25.786Z,-0.82
2017-12-29T08:09:26.336Z,-0.79
2017-12-29T08:10:26.020Z,-0.84
2017-12-29T08:11:25.466Z,-0.7
2017-12-29T08:12:25.444Z,-0.67
2017-12-29T08:13:25.955Z,-0.69
2017-12-29T08:14:25.661Z,-0.69
2017-12-29T08:15:25.911Z,-0.69
2017-12-29T08:16:25.351Z,-0.69
2017-12-29T08:17:25.617Z,-0.62
2017-12-29T08:18:25.587Z,-0.59
2017-12-29T08:19:25.621Z,-0.69
2017-12-29T08:20:25.294Z,-0.61
2017-12-29T08:21:25.528Z,-0.59
2017-12-29T08:22:25.507Z,-0.69
2017-12-29T08:23:25.758Z,-0.55
2017-12-29T08:24:25.737Z,-0.55
2017-12-29T08:25:25.455Z,-0.52
2017-12-29T08:26:25.430Z,-0.48
2017-12-29T08:27:25.143Z,-0.48
2017-12-29T08:28:25.131Z,-0.45
2017-12-29T08:29:25.392Z,-0.54
2017-12-29T08:30:25.104Z,-0.45
2017-12-29T08:31:25.067Z,-0.56
2017-12-29T08:32:25.319Z,-0.49
2017-12-29T08:33:25.389Z,-0.49
2017-12-29T08:34:25.030Z,-0.51
2017-12-29T08:35:24.990Z,-0.55
2017-12-29T08:36:25.249Z,-0.46
2017-12-29T08:37:25.248Z,-0.43
2017-12-29T08:38:25.230Z,-0.38
2017-12-29T08:39:25.190Z,-0.4
2017-12-29T08:40:25.206Z,-0.4
2017-12-29T08:41:25.441Z,-0.41
2017-12-29T08:42:25.132Z,-0.49
2017-12-29T08:43:24.841Z,-0.45
2017-12-29T08:44:25.096Z,-0.45
2017-12-29T08:45:24.806Z,-0.36
2017-12-29T08:46:24.791Z,-0.33
2017-12-29T08:47:25.248Z,-0.33
2017-12-29T08:48:24.755Z,-0.4
2017-12-29T08:49:24.726Z,-0.34
2017-12-29T08:50:24.982Z,-0.28
2017-12-29T08:51:24.693Z,-0.31
2017-12-29T08:52:24.943Z,-0.33
2017-12-29T08:53:24.671Z,-0.33
2017-12-29T08:54:24.630Z,-0.34
2017-12-29T08:55:24.886Z,-0.36
2017-12-29T08:56:24.874Z,-0.36
2017-12-29T08:57:24.865Z,-0.38
2017-12-29T08:58:24.563Z,-0.38
2017-12-29T08:59:24.538Z,-0.34
2017-12-29T09:00:24.520Z,-0.34
2017-12-29T09:01:24.513Z,-0.31
2017-12-29T09:02:24.757Z,-0.33
2017-12-29T09:03:24.466Z,-0.37
2017-12-29T09:04:24.740Z,-0.33
2017-12-29T09:05:24.434Z,-0.37
2017-12-29T09:06:24.418Z,-0.27
2017-12-29T09:07:24.405Z,-0.36
2017-12-29T09:08:24.375Z,-0.38
2017-12-29T09:09:24.629Z,-0.37
2017-12-29T09:10:24.607Z,-0.31
2017-12-29T09:11:24.599Z,-0.2
2017-12-29T09:12:24.299Z,-0.28
2017-12-29T09:13:24.573Z,-0.3
2017-12-29T09:14:24.548Z,-0.27
2017-12-29T09:15:24.532Z,-0.25
2017-12-29T09:16:24.499Z,-0.25
2017-12-29T09:17:24.206Z,-0.18
2017-12-29T09:18:24.455Z,-0.16
2017-12-29T09:19:24.181Z,-0.13
2017-12-29T09:20:24.169Z,-0.22
2017-12-29T09:21:24.134Z,-0.09
2017-12-29T09:22:24.393Z,-0.19
2017-12-29T09:23:24.370Z,-0.1
2017-12-29T09:24:24.123Z,-0.15
2017-12-29T09:25:24.605Z,-0.04
2017-12-29T09:26:24.587Z,-0.01
2017-12-29T09:27:24.079Z,0.02
2017-12-29T09:28:24.005Z,-0.01
2017-12-29T09:29:24.256Z,0.05
2017-12-29T09:30:24.242Z,0.01
2017-12-29T09:31:24.219Z,0.06
2017-12-29T09:32:23.967Z,0.13
2017-12-29T09:33:23.909Z,0.08
2017-12-29T09:34:23.896Z,0.1
2017-12-29T09:35:24.148Z,0.08
2017-12-29T09:36:23.872Z,0.1
2017-12-29T09:37:23.838Z,0.09
2017-12-29T09:38:23.817Z,0.19
2017-12-29T09:39:23.803Z,0.06
2017-12-29T09:40:23.785Z,0.13
2017-12-29T09:41:23.761Z,0.19
2017-12-29T09:42:23.744Z,0.17
2017-12-29T09:43:23.728Z,0.13
2017-12-29T09:44:23.978Z,0.13
2017-12-29T09:45:23.961Z,0.14
2017-12-29T09:46:23.669Z,0.1
2017-12-29T09:47:23.943Z,0.09
2017-12-29T09:48:23.632Z,0.19
2017-12-29T09:49:24.088Z,0.17
2017-12-29T09:50:23.865Z,0.28
2017-12-29T09:51:23.851Z,0.37
2017-12-29T09:52:23.833Z,0.34
2017-12-29T09:53:23.812Z,0.42
2017-12-29T09:54:23.796Z,0.47
2017-12-29T09:55:23.778Z,0.45
2017-12-29T09:56:23.487Z,0.5
2017-12-29T09:57:23.487Z,0.64
2017-12-29T09:58:24.009Z,0.75
2017-12-29T09:59:23.717Z,0.75
2017-12-29T10:00:23.417Z,0.84
2017-12-29T10:01:23.414Z,0.92
2017-12-29T10:02:23.379Z,0.94
2017-12-29T10:03:23.637Z,0.99
2017-12-29T10:04:23.906Z,0.99
2017-12-29T10:05:23.598Z,0.97
2017-12-29T10:06:23.308Z,1.08
2017-12-29T10:07:23.291Z,1.04
2017-12-29T10:08:23.279Z,1.11
2017-12-29T10:09:23.526Z,1.11
2017-12-29T10:10:23.247Z,1.04
2017-12-29T10:11:23.228Z,1.15
2017-12-29T10:12:23.480Z,1.17
2017-12-29T10:13:23.211Z,1.02
2017-12-29T10:14:23.181Z,0.85
2017-12-29T10:15:23.149Z,0.75
2017-12-29T10:16:23.749Z,0.66
2017-12-29T10:17:23.132Z,0.56
2017-12-29T10:18:23.373Z,0.41
2017-12-29T10:19:23.109Z,0.38
2017-12-29T10:20:23.075Z,0.27
2017-12-29T10:21:23.353Z,0.19
2017-12-29T10:22:23.352Z,0.16
2017-12-29T10:23:23.310Z,0.21
2017-12-29T10:24:22.984Z,0.17
2017-12-29T10:25:22.970Z,0.26
2017-12-29T10:26:23.258Z,0.17
2017-12-29T10:27:22.952Z,0.21
2017-12-29T10:28:22.918Z,0.28
2017-12-29T10:29:23.213Z,0.27
2017-12-29T10:30:22.881Z,0.42
2017-12-29T10:31:23.135Z,0.42
2017-12-29T10:32:22.876Z,0.37
2017-12-29T10:33:23.392Z,0.35
2017-12-29T10:34:23.098Z,0.42
2017-12-29T10:35:23.080Z,0.38
2017-12-29T10:36:22.791Z,0.26
2017-12-29T10:37:22.765Z,0.26
2017-12-29T10:38:23.050Z,0.23
2017-12-29T10:39:22.789Z,0.38
2017-12-29T10:40:22.705Z,0.48
2017-12-29T10:41:22.688Z,0.52
2017-12-29T10:42:22.725Z,0.52
2017-12-29T10:43:22.676Z,0.5
2017-12-29T10:44:22.637Z,0.56
2017-12-29T10:45:22.884Z,0.53
2017-12-29T10:46:23.136Z,0.52
2017-12-29T10:47:22.861Z,0.53
2017-12-29T10:48:22.917Z,0.53
2017-12-29T10:49:23.145Z,0.75
2017-12-29T10:50:22.538Z,0.76
2017-12-29T10:51:22.518Z,0.72
2017-12-29T10:52:22.501Z,0.74
2017-12-29T10:53:22.812Z,0.61
2017-12-29T10:54:22.461Z,0.61
2017-12-29T10:55:22.466Z,0.78
2017-12-29T10:56:22.993Z,0.75
2017-12-29T10:57:22.418Z,0.86
2017-12-29T10:58:22.988Z,0.81
2017-12-29T10:59:22.949Z,0.69
2017-12-29T11:00:22.388Z,0.75
2017-12-29T11:01:22.342Z,0.72
2017-12-29T11:02:22.345Z,0.64
2017-12-29T11:03:22.662Z,0.76
2017-12-29T11:04:22.572Z,0.84
2017-12-29T11:05:22.833Z,0.89
2017-12-29T11:06:22.244Z,0.78
2017-12-29T11:07:22.220Z,0.78
2017-12-29T11:08:22.497Z,0.79
2017-12-29T11:09:22.194Z,0.74
2017-12-29T11:10:22.443Z,0.78
2017-12-29T11:11:22.152Z,0.81
2017-12-29T11:12:22.402Z,0.79
2017-12-29T11:13:22.408Z,0.86
2017-12-29T11:14:22.457Z,0.9
2017-12-29T11:15:22.625Z,0.78
2017-12-29T11:16:22.605Z,0.69
2017-12-29T11:17:22.053Z,0.64
2017-12-29T11:18:22.028Z,0.69
2017-12-29T11:19:22.305Z,0.6
2017-12-29T11:20:23.131Z,0.61
2017-12-29T11:21:22.526Z,0.52
2017-12-29T11:22:22.227Z,0.57
2017-12-29T11:23:22.144Z,0.47
2017-12-29T11:24:22.278Z,0.56
2017-12-29T11:25:22.365Z,0.63
2017-12-29T11:26:22.035Z,0.61
2017-12-29T11:27:21.893Z,0.5
2017-12-29T11:28:22.130Z,0.47
2017-12-29T11:29:22.372Z,0.53
2017-12-29T11:30:22.083Z,0.52
2017-12-29T11:31:22.339Z,0.52
2017-12-29T11:32:21.780Z,0.56
2017-12-29T11:33:21.758Z,0.52
2017-12-29T11:34:21.753Z,0.61
2017-12-29T11:35:21.724Z,0.76
2017-12-29T11:36:21.720Z,0.71
2017-12-29T11:37:21.959Z,0.71
2017-12-29T11:38:21.950Z,0.82
2017-12-29T11:39:21.654Z,0.72
2017-12-29T11:40:21.910Z,0.81
2017-12-29T11:41:21.889Z,0.84
2017-12-29T11:42:21.869Z,0.81
2017-12-29T11:43:21.582Z,0.86
2017-12-29T11:44:21.832Z,0.89
2017-12-29T11:45:21.819Z,0.79
2017-12-29T11:46:21.527Z,0.79
2017-12-29T11:47:25.112Z,0.64
2017-12-29T11:48:21.495Z,0.61
2017-12-29T11:49:21.742Z,0.63
2017-12-29T11:50:21.737Z,0.56
2017-12-29T11:51:21.437Z,0.53
2017-12-29T11:52:21.425Z,0.64
2017-12-29T11:53:21.675Z,0.63
2017-12-29T11:54:21.384Z,0.75
2017-12-29T11:55:21.639Z,0.78
2017-12-29T11:56:21.619Z,0.72
2017-12-29T11:57:21.609Z,0.78
2017-12-29T11:58:21.884Z,0.84
2017-12-29T11:59:21.566Z,0.89
2017-12-29T12:00:21.570Z,0.93
2017-12-29T12:01:21.278Z,0.89
2017-12-29T12:02:21.244Z,0.92
2017-12-29T12:03:21.224Z,1.02
2017-12-29T12:04:21.205Z,0.89
2017-12-29T12:05:21.194Z,0.89
2017-12-29T12:06:21.174Z,0.96
2017-12-29T12:07:21.157Z,0.96
2017-12-29T12:08:21.406Z,1
2017-12-29T12:09:21.122Z,1.04
2017-12-29T12:10:21.125Z,1.02
2017-12-29T12:11:21.645Z,1.03
2017-12-29T12:12:21.335Z,1
2017-12-29T12:13:21.331Z,1.08
2017-12-29T12:14:21.032Z,1.03
2017-12-29T12:15:21.565Z,1.07
2017-12-29T12:16:21.008Z,1.1
2017-12-29T12:17:20.991Z,1.11
2017-12-29T12:18:20.961Z,1.07
2017-12-29T12:19:21.488Z,1.03
2017-12-29T12:20:20.936Z,1.12
2017-12-29T12:21:21.222Z,1.04
2017-12-29T12:22:21.191Z,0.97
2017-12-29T12:23:21.420Z,0.94
2017-12-29T12:24:20.855Z,0.96
2017-12-29T12:25:21.134Z,1.04
2017-12-29T12:26:21.384Z,0.97
2017-12-29T12:27:21.077Z,0.92
2017-12-29T12:28:21.077Z,0.97
2017-12-29T12:29:20.768Z,1.02
2017-12-29T12:30:21.295Z,0.94
2017-12-29T12:31:21.006Z,1.11
2017-12-29T12:32:20.718Z,0.97
2017-12-29T12:33:20.966Z,0.99
2017-12-29T12:34:20.702Z,0.86
2017-12-29T12:35:20.931Z,0.92
2017-12-29T12:36:20.647Z,0.85
2017-12-29T12:37:20.901Z,0.93
2017-12-29T12:38:20.618Z,0.92
2017-12-29T12:39:21.180Z,0.93
2017-12-29T12:40:20.848Z,1.07
2017-12-29T12:41:21.118Z,1.1
2017-12-29T12:42:20.817Z,1.11
2017-12-29T12:43:21.062Z,1.15
2017-12-29T12:44:20.778Z,1.18
2017-12-29T12:45:20.499Z,1.17
2017-12-29T12:46:20.761Z,1.11
2017-12-29T12:47:20.455Z,1.1
2017-12-29T12:48:20.461Z,1.08
2017-12-29T12:49:20.703Z,0.97
2017-12-29T12:50:20.404Z,1.02
2017-12-29T12:51:20.387Z,1.07
2017-12-29T12:52:20.395Z,1.02
2017-12-29T12:53:20.622Z,0.92
2017-12-29T12:54:22.021Z,0.89
2017-12-29T12:55:20.327Z,0.81
2017-12-29T12:56:20.763Z,0.89
2017-12-29T12:57:20.544Z,0.78
2017-12-29T12:58:20.260Z,0.64
2017-12-29T12:59:20.516Z,0.64
2017-12-29T13:00:20.493Z,0.63
2017-12-29T13:01:20.208Z,0.53
2017-12-29T13:02:20.194Z,0.56